createdAt,value
2019-02-19T00:00:32.310Z,77.84
2019-02-19T00:01:32.318Z,78.15
2019-02-19T00:02:32.293Z,77.43
2019-02-19T00:03:32.280Z,76.60
2019-02-19T00:04:32.281Z,77.74
2019-02-19T00:05:32.265Z,77.53
2019-02-19T00:06:32.270Z,77.43
2019-02-19T00:07:32.242Z,77.98
2019-02-19T00:08:32.226Z,77.77
2019-02-19T00:09:32.214Z,78.08
2019-02-19T00:10:32.204Z,77.87
2019-02-19T00:11:32.206Z,78.12
2019-02-19T00:12:32.217Z,78.53
2019-02-19T00:13:32.172Z,78.64
2019-02-19T00:14:32.162Z,79.05
2019-02-19T00:15:32.151Z,79.74
2019-02-19T00:16:32.164Z,78.50
2019-02-19T00:17:32.133Z,78.08
2019-02-19T00:18:32.128Z,77.77
2019-02-19T00:19:32.133Z,78.60
2019-02-19T00:20:32.100Z,78.19
2019-02-19T00:21:32.084Z,77.77
2019-02-19T00:22:32.092Z,78.02
2019-02-19T00:23:32.069Z,78.53
2019-02-19T00:24:32.055Z,79.05
2019-02-19T00:25:32.069Z,78.50
2019-02-19T00:26:32.033Z,78.70
2019-02-19T00:27:32.026Z,78.02
2019-02-19T00:28:32.025Z,78.53
2019-02-19T00:29:31.999Z,78.02
2019-02-19T00:30:31.992Z,78.02
2019-02-19T00:31:32.004Z,78.53
2019-02-19T00:32:31.981Z,78.74
2019-02-19T00:33:31.960Z,78.43
2019-02-19T00:34:31.955Z,79.16
2019-02-19T00:35:31.934Z,79.16
2019-02-19T00:36:31.943Z,79.60
2019-02-19T00:37:31.916Z,80.22
2019-02-19T00:38:31.915Z,80.02
2019-02-19T00:39:31.893Z,80.43
2019-02-19T00:40:31.893Z,79.30
2019-02-19T00:41:31.870Z,80.02
2019-02-19T00:42:31.877Z,80.43
2019-02-19T00:43:31.850Z,80.22
2019-02-19T00:44:31.841Z,80.05
2019-02-19T00:45:31.832Z,80.05
2019-02-19T00:46:31.849Z,80.26
2019-02-19T00:47:31.809Z,80.36
2019-02-19T00:48:31.813Z,80.33
2019-02-19T00:49:31.784Z,79.91
2019-02-19T00:50:31.775Z,79.81
2019-02-19T00:51:31.767Z,79.88
2019-02-19T00:52:31.765Z,79.47
2019-02-19T00:53:31.783Z,79.57
2019-02-19T00:54:31.749Z,79.57
2019-02-19T00:55:31.725Z,79.05
2019-02-19T00:56:31.709Z,78.43
2019-02-19T00:57:31.701Z,80.19
2019-02-19T00:58:31.712Z,80.05
2019-02-19T00:59:31.706Z,78.77
2019-02-19T01:00:31.684Z,78.15
2019-02-19T01:01:31.658Z,77.74
2019-02-19T01:02:31.649Z,78.08
2019-02-19T01:03:31.650Z,77.77
2019-02-19T01:04:31.626Z,77.56
2019-02-19T01:05:31.660Z,77.15
2019-02-19T01:06:31.638Z,78.08
2019-02-19T01:07:31.615Z,78.08
2019-02-19T01:08:31.606Z,78.53
2019-02-19T01:09:31.581Z,78.95
2019-02-19T01:10:31.557Z,79.16
2019-02-19T01:11:31.550Z,79.16
2019-02-19T01:12:31.646Z,78.85
2019-02-19T01:13:31.539Z,79.36
2019-02-19T01:14:31.516Z,79.88
2019-02-19T01:15:31.507Z,79.57
2019-02-19T01:16:31.494Z,78.46
2019-02-19T01:17:31.603Z,77.64
2019-02-19T01:18:31.473Z,77.50
2019-02-19T01:19:31.461Z,76.46
2019-02-19T01:20:31.452Z,76.15
2019-02-19T01:21:31.447Z,76.36
2019-02-19T01:22:31.451Z,76.87
2019-02-19T01:23:31.431Z,76.46
2019-02-19T01:24:31.431Z,75.53
2019-02-19T01:25:31.399Z,75.74
2019-02-19T01:26:31.389Z,75.74
2019-02-19T01:27:31.395Z,75.43
2019-02-19T01:28:31.368Z,76.15
2019-02-19T01:29:31.363Z,75.49
2019-02-19T01:30:31.369Z,75.84
2019-02-19T01:31:31.335Z,76.05
2019-02-19T01:32:31.340Z,76.56
2019-02-19T01:33:31.310Z,76.39
2019-02-19T01:34:31.305Z,75.46
2019-02-19T01:35:31.290Z,76.56
2019-02-19T01:36:31.336Z,76.70
2019-02-19T01:37:31.287Z,76.26
2019-02-19T01:38:31.258Z,75.95
2019-02-19T01:39:31.247Z,75.53
2019-02-19T01:40:31.238Z,75.53
2019-02-19T01:41:31.226Z,76.05
2019-02-19T01:42:31.236Z,75.63
2019-02-19T01:43:31.211Z,76.05
2019-02-19T01:44:31.209Z,75.53
2019-02-19T01:45:34.134Z,76.26
2019-02-19T01:46:31.173Z,76.81
2019-02-19T01:47:31.182Z,77.33
2019-02-19T01:48:31.161Z,77.84
2019-02-19T01:49:31.140Z,77.98
2019-02-19T01:50:31.157Z,77.43
2019-02-19T01:51:31.126Z,77.60
2019-02-19T01:52:31.109Z,77.29
2019-02-19T01:53:31.118Z,76.56
2019-02-19T01:54:31.086Z,77.08
2019-02-19T01:55:31.075Z,77.50
2019-02-19T01:56:31.084Z,77.64
2019-02-19T01:57:31.075Z,77.53
2019-02-19T01:58:31.044Z,77.94
2019-02-19T01:59:31.052Z,78.15
2019-02-19T02:00:31.022Z,78.05
2019-02-19T02:01:31.010Z,78.60
2019-02-19T02:02:31.036Z,79.02
2019-02-19T02:03:31.024Z,79.33
2019-02-19T02:04:30.983Z,79.12
2019-02-19T02:05:30.968Z,79.53
2019-02-19T02:06:30.970Z,79.60
2019-02-19T02:07:30.946Z,79.84
2019-02-19T02:08:30.978Z,79.53
2019-02-19T02:09:30.942Z,79.74
2019-02-19T02:10:30.923Z,79.49
2019-02-19T02:11:30.906Z,79.49
2019-02-19T02:12:30.905Z,79.08
2019-02-19T02:13:30.882Z,78.56
2019-02-19T02:14:30.914Z,78.77
2019-02-19T02:15:30.893Z,79.70
2019-02-19T02:16:30.849Z,79.33
2019-02-19T02:17:30.840Z,79.49
2019-02-19T02:18:30.833Z,79.39
2019-02-19T02:19:30.816Z,79.60
2019-02-19T02:20:30.845Z,80.36
2019-02-19T02:21:30.803Z,80.15
2019-02-19T02:22:30.820Z,80.08
2019-02-19T02:23:30.792Z,80.81
2019-02-19T02:24:30.763Z,80.91
2019-02-19T02:25:30.754Z,80.71
2019-02-19T02:26:30.753Z,81.33
2019-02-19T02:27:30.730Z,81.23
2019-02-19T02:28:30.752Z,81.33
2019-02-19T02:29:30.710Z,83.05
2019-02-19T02:30:30.701Z,83.15
2019-02-19T02:31:30.693Z,82.22
2019-02-19T02:32:30.683Z,82.29
2019-02-19T02:33:30.686Z,82.25
2019-02-19T02:34:30.757Z,81.52
2019-02-19T02:35:30.647Z,80.80
2019-02-19T02:36:30.640Z,81.01
2019-02-19T02:37:30.635Z,81.01
2019-02-19T02:38:30.630Z,81.28
2019-02-19T02:39:30.604Z,81.07
2019-02-19T02:40:30.614Z,81.38
2019-02-19T02:41:30.591Z,80.93
2019-02-19T02:42:30.579Z,80.62
2019-02-19T02:43:30.796Z,79.90
2019-02-19T02:44:30.567Z,79.90
2019-02-19T02:45:30.537Z,80.21
2019-02-19T02:46:30.553Z,80.42
2019-02-19T02:47:30.526Z,80.93
2019-02-19T02:48:30.522Z,80.93
2019-02-19T02:49:30.495Z,80.93
2019-02-19T02:50:30.508Z,80.62
2019-02-19T02:51:30.474Z,80.93
2019-02-19T02:52:30.472Z,81.35
2019-02-19T02:53:30.478Z,81.24
2019-02-19T02:54:30.511Z,80.93
2019-02-19T02:55:30.440Z,80.97
2019-02-19T02:56:30.434Z,80.97
2019-02-19T02:57:30.410Z,81.24
2019-02-19T02:58:30.462Z,81.18
2019-02-19T02:59:30.394Z,81.59
2019-02-19T03:00:30.399Z,81.28
2019-02-19T03:01:30.414Z,81.14
2019-02-19T03:02:30.374Z,81.14
2019-02-19T03:03:30.358Z,81.45
2019-02-19T03:04:30.696Z,80.93
2019-02-19T03:05:30.353Z,81.14
2019-02-19T03:06:30.333Z,81.04
2019-02-19T03:07:30.337Z,81.04
2019-02-19T03:08:30.293Z,81.45
2019-02-19T03:09:30.283Z,80.52
2019-02-19T03:10:30.318Z,80.83
2019-02-19T03:11:30.269Z,80.90
2019-02-19T03:12:30.273Z,81.24
2019-02-19T03:13:30.243Z,81.14
2019-02-19T03:14:30.240Z,81.00
2019-02-19T03:15:30.240Z,80.73
2019-02-19T03:16:30.243Z,80.83
2019-02-19T03:17:30.214Z,80.62
2019-02-19T03:18:30.224Z,80.79
2019-02-19T03:19:30.181Z,80.93
2019-02-19T03:20:30.193Z,81.04
2019-02-19T03:21:30.172Z,80.90
2019-02-19T03:22:30.179Z,81.04
2019-02-19T03:23:30.152Z,81.31
2019-02-19T03:24:30.128Z,80.90
2019-02-19T03:25:30.399Z,80.58
2019-02-19T03:26:30.105Z,81.76
2019-02-19T03:27:30.112Z,81.31
2019-02-19T03:28:30.104Z,81.21
2019-02-19T03:29:30.074Z,81.76
2019-02-19T03:30:30.062Z,82.14
2019-02-19T03:31:30.050Z,82.03
2019-02-19T03:32:30.041Z,81.82
2019-02-19T03:33:30.049Z,82.07
2019-02-19T03:34:30.036Z,82.24
2019-02-19T03:35:30.005Z,81.93
2019-02-19T03:36:30.000Z,82.75
2019-02-19T03:37:29.989Z,82.75
2019-02-19T03:38:29.981Z,82.45
2019-02-19T03:39:29.987Z,83.00
2019-02-19T03:40:29.974Z,82.86
2019-02-19T03:41:29.957Z,82.65
2019-02-19T03:42:29.931Z,83.20
2019-02-19T03:43:29.939Z,83.20
2019-02-19T03:44:29.913Z,83.51
2019-02-19T03:45:29.914Z,82.79
2019-02-19T03:46:30.503Z,83.10
2019-02-19T03:47:29.880Z,83.62
2019-02-19T03:48:29.882Z,83.62
2019-02-19T03:49:29.856Z,82.89
2019-02-19T03:50:29.847Z,83.83
2019-02-19T03:51:29.891Z,83.41
2019-02-19T03:52:29.823Z,83.72
2019-02-19T03:53:29.826Z,83.41
2019-02-19T03:54:29.801Z,83.31
2019-02-19T03:55:29.795Z,83.31
2019-02-19T03:56:29.780Z,83.83
2019-02-19T03:57:29.796Z,84.23
2019-02-19T03:58:29.780Z,83.72
2019-02-19T03:59:29.756Z,83.72
2019-02-19T04:00:29.737Z,83.62
2019-02-19T04:01:29.726Z,83.93
2019-02-19T04:02:29.725Z,83.83
2019-02-19T04:03:29.735Z,84.65
2019-02-19T04:04:29.719Z,84.13
2019-02-19T04:05:29.685Z,84.23
2019-02-19T04:06:29.671Z,84.55
2019-02-19T04:07:29.689Z,85.37
2019-02-19T04:08:29.652Z,84.23
2019-02-19T04:09:29.654Z,84.23
2019-02-19T04:10:29.657Z,85.17
2019-02-19T04:11:29.651Z,84.86
2019-02-19T04:12:29.633Z,84.65
2019-02-19T04:13:29.627Z,84.75
2019-02-19T04:14:29.603Z,85.37
2019-02-19T04:15:29.679Z,85.58
2019-02-19T04:16:29.591Z,85.78
2019-02-19T04:17:29.563Z,85.89
2019-02-19T04:18:29.560Z,86.30
2019-02-19T04:19:29.539Z,87.23
2019-02-19T04:20:29.520Z,86.65
2019-02-19T04:21:29.519Z,86.76
2019-02-19T04:22:29.549Z,85.93
2019-02-19T04:23:29.497Z,86.24
2019-02-19T04:24:29.509Z,87.17
2019-02-19T04:25:29.488Z,87.27
2019-02-19T04:26:29.458Z,87.68
2019-02-19T04:27:29.446Z,88.61
2019-02-19T04:28:29.563Z,88.71
2019-02-19T04:29:29.432Z,89.03
2019-02-19T04:30:29.421Z,89.03
2019-02-19T04:31:29.403Z,89.03
2019-02-19T04:32:29.398Z,89.86
2019-02-19T04:33:29.402Z,90.16
2019-02-19T04:34:29.390Z,90.78
2019-02-19T04:35:29.382Z,91.09
2019-02-19T04:36:29.348Z,91.03
2019-02-19T04:37:30.108Z,91.55
2019-02-19T04:38:29.334Z,92.07
2019-02-19T04:39:29.333Z,91.96
2019-02-19T04:40:29.323Z,91.65
2019-02-19T04:41:29.303Z,92.68
2019-02-19T04:42:29.312Z,92.07
2019-02-19T04:43:29.286Z,92.38
2019-02-19T04:44:29.338Z,92.52
2019-02-19T04:45:29.282Z,92.63
2019-02-19T04:46:31.786Z,92.52
2019-02-19T04:47:29.292Z,92.27
2019-02-19T04:48:29.234Z,93.45
2019-02-19T04:49:29.536Z,92.72
2019-02-19T04:50:29.236Z,93.04
2019-02-19T04:51:29.223Z,93.72
2019-02-19T04:52:29.183Z,94.28
2019-02-19T04:53:29.179Z,94.18
2019-02-19T04:54:29.215Z,94.38
2019-02-19T04:55:29.166Z,94.38
2019-02-19T04:56:29.191Z,93.97
2019-02-19T04:57:29.154Z,94.48
2019-02-19T04:58:29.135Z,93.87
2019-02-19T04:59:29.140Z,94.28
2019-02-19T05:00:29.114Z,94.48
2019-02-19T05:01:29.108Z,94.07
2019-02-19T05:02:29.074Z,93.66
2019-02-19T05:03:29.063Z,93.45
2019-02-19T05:04:29.088Z,93.55
2019-02-19T05:05:29.097Z,93.51
2019-02-19T05:06:29.035Z,93.20
2019-02-19T05:07:29.037Z,94.07
2019-02-19T05:08:29.032Z,94.03
2019-02-19T05:09:29.033Z,93.66
2019-02-19T05:10:29.203Z,94.28
2019-02-19T05:11:28.987Z,93.97
2019-02-19T05:12:28.968Z,93.76
2019-02-19T05:13:28.994Z,94.69
2019-02-19T05:14:28.974Z,94.48
2019-02-19T05:15:28.959Z,94.28
2019-02-19T05:16:28.923Z,94.07
2019-02-19T05:17:28.929Z,93.97
2019-02-19T05:18:28.907Z,94.07
2019-02-19T05:19:28.890Z,94.07
2019-02-19T05:20:28.896Z,93.24
2019-02-19T05:21:28.934Z,93.41
2019-02-19T05:22:28.873Z,93.72
2019-02-19T05:23:28.867Z,93.20
2019-02-19T05:24:28.843Z,93.45
2019-02-19T05:25:28.844Z,93.04
2019-02-19T05:26:28.853Z,93.35
2019-02-19T05:27:28.841Z,93.35
2019-02-19T05:28:28.814Z,93.10
2019-02-19T05:29:28.789Z,93.45
2019-02-19T05:30:28.812Z,93.04
2019-02-19T05:31:29.177Z,93.14
2019-02-19T05:32:28.760Z,93.45
2019-02-19T05:33:28.764Z,92.99
2019-02-19T05:34:28.736Z,93.55
2019-02-19T05:35:28.751Z,93.41
2019-02-19T05:36:28.720Z,93.30
2019-02-19T05:37:28.709Z,93.14
2019-02-19T05:38:28.711Z,93.10
2019-02-19T05:39:28.695Z,93.10
2019-02-19T05:40:28.679Z,93.35
2019-02-19T05:41:28.659Z,92.89
2019-02-19T05:42:28.659Z,93.20
2019-02-19T05:43:28.643Z,93.35
2019-02-19T05:44:28.649Z,93.45
2019-02-19T05:45:28.651Z,93.51
2019-02-19T05:46:28.611Z,93.41
2019-02-19T05:47:28.613Z,93.41
2019-02-19T05:48:28.589Z,93.30
2019-02-19T05:49:28.597Z,93.51
2019-02-19T05:50:28.562Z,92.38
2019-02-19T05:51:28.612Z,93.51
2019-02-19T05:52:28.548Z,93.41
2019-02-19T05:53:28.535Z,93.55
2019-02-19T05:54:28.529Z,93.62
2019-02-19T05:55:28.535Z,94.18
2019-02-19T05:56:28.526Z,93.76
2019-02-19T05:57:28.492Z,93.82
2019-02-19T05:58:28.480Z,94.48
2019-02-19T05:59:28.471Z,94.18
2019-02-19T06:00:28.460Z,94.18
2019-02-19T06:01:28.471Z,94.38
2019-02-19T06:02:28.464Z,94.18
2019-02-19T06:03:28.424Z,94.07
2019-02-19T06:04:28.414Z,94.18
2019-02-19T06:05:28.430Z,94.07
2019-02-19T06:06:28.402Z,94.38
2019-02-19T06:07:28.385Z,94.18
2019-02-19T06:08:28.381Z,94.79
2019-02-19T06:09:28.468Z,94.48
2019-02-19T06:10:28.375Z,94.79
2019-02-19T06:11:28.346Z,94.54
2019-02-19T06:12:28.332Z,94.07
2019-02-19T06:13:28.534Z,93.93
2019-02-19T06:14:28.316Z,94.13
2019-02-19T06:15:28.398Z,93.82
2019-02-19T06:16:28.302Z,94.13
2019-02-19T06:17:28.276Z,94.03
2019-02-19T06:18:28.271Z,94.03
2019-02-19T06:19:28.274Z,93.82
2019-02-19T06:20:28.272Z,93.51
2019-02-19T06:21:28.240Z,93.30
2019-02-19T06:22:28.243Z,93.72
2019-02-19T06:23:28.223Z,94.13
2019-02-19T06:24:28.201Z,93.82
2019-02-19T06:25:28.213Z,94.54
2019-02-19T06:26:28.212Z,94.03
2019-02-19T06:27:28.183Z,94.34
2019-02-19T06:28:28.178Z,94.18
2019-02-19T06:29:28.164Z,94.34
2019-02-19T06:30:28.160Z,94.34
2019-02-19T06:31:28.133Z,93.72
2019-02-19T06:32:28.126Z,94.13
2019-02-19T06:33:28.132Z,94.54
2019-02-19T06:34:28.108Z,94.75
2019-02-19T06:35:28.113Z,94.13
2019-02-19T06:36:28.094Z,94.34
2019-02-19T06:37:28.079Z,94.03
2019-02-19T06:38:28.057Z,94.03
2019-02-19T06:39:28.048Z,94.13
2019-02-19T06:40:28.048Z,93.72
2019-02-19T06:41:28.039Z,93.62
2019-02-19T06:42:28.032Z,93.41
2019-02-19T06:43:27.998Z,93.10
2019-02-19T06:44:27.991Z,93.10
2019-02-19T06:45:27.985Z,93.30
2019-02-19T06:46:27.997Z,93.30
2019-02-19T06:47:27.956Z,93.51
2019-02-19T06:48:27.955Z,93.51
2019-02-19T06:49:27.960Z,93.62
2019-02-19T06:50:27.931Z,93.62
2019-02-19T06:51:27.919Z,93.20
2019-02-19T06:52:27.924Z,93.41
2019-02-19T06:53:27.944Z,93.35
2019-02-19T06:54:27.906Z,93.10
2019-02-19T06:55:28.093Z,93.41
2019-02-19T06:56:27.888Z,93.10
2019-02-19T06:57:27.855Z,93.41
2019-02-19T06:58:27.871Z,93.62
2019-02-19T06:59:27.833Z,93.87
2019-02-19T07:00:27.820Z,93.30
2019-02-19T07:01:27.833Z,94.03
2019-02-19T07:02:27.800Z,93.93
2019-02-19T07:03:27.825Z,93.51
2019-02-19T07:04:27.777Z,93.41
2019-02-19T07:05:27.765Z,93.10
2019-02-19T07:06:27.784Z,93.41
2019-02-19T07:07:27.745Z,93.20
2019-02-19T07:08:27.731Z,93.41
2019-02-19T07:09:27.759Z,93.16
2019-02-19T07:10:27.720Z,92.68
2019-02-19T07:11:27.722Z,93.41
2019-02-19T07:12:27.706Z,93.51
2019-02-19T07:13:27.684Z,92.79
2019-02-19T07:14:27.673Z,92.89
2019-02-19T07:15:27.682Z,93.20
2019-02-19T07:16:27.693Z,93.10
2019-02-19T07:17:27.666Z,92.99
2019-02-19T07:18:27.627Z,93.30
2019-02-19T07:19:27.615Z,92.74
2019-02-19T07:20:27.605Z,92.17
2019-02-19T07:21:27.636Z,92.64
2019-02-19T07:22:27.587Z,92.23
2019-02-19T07:23:27.574Z,92.33
2019-02-19T07:24:27.570Z,91.40
2019-02-19T07:25:27.594Z,92.02
2019-02-19T07:26:27.558Z,92.02
2019-02-19T07:27:27.552Z,91.71
2019-02-19T07:28:27.528Z,92.02
2019-02-19T07:29:27.518Z,91.92
2019-02-19T07:30:27.502Z,91.82
2019-02-19T07:31:27.503Z,91.92
2019-02-19T07:32:27.482Z,91.40
2019-02-19T07:33:27.481Z,91.71
2019-02-19T07:34:27.459Z,92.13
2019-02-19T07:35:27.451Z,91.71
2019-02-19T07:36:27.447Z,90.84
2019-02-19T07:37:27.642Z,91.05
2019-02-19T07:38:27.416Z,91.16
2019-02-19T07:39:27.425Z,91.16
2019-02-19T07:40:27.396Z,90.95
2019-02-19T07:41:27.400Z,90.74
2019-02-19T07:42:27.370Z,91.05
2019-02-19T07:43:27.360Z,91.05
2019-02-19T07:44:27.366Z,90.84
2019-02-19T07:45:27.341Z,91.16
2019-02-19T07:46:27.326Z,90.95
2019-02-19T07:47:27.361Z,91.05
2019-02-19T07:48:27.309Z,91.05
2019-02-19T07:49:27.297Z,90.95
2019-02-19T07:50:27.310Z,91.16
2019-02-19T07:51:27.295Z,91.05
2019-02-19T07:52:27.270Z,90.95
2019-02-19T07:53:27.266Z,91.26
2019-02-19T07:54:27.257Z,90.74
2019-02-19T07:55:27.237Z,90.84
2019-02-19T07:56:27.287Z,91.05
2019-02-19T07:57:27.213Z,91.16
2019-02-19T07:58:27.418Z,91.46
2019-02-19T07:59:27.201Z,91.67
2019-02-19T08:00:27.175Z,90.84
2019-02-19T08:01:27.231Z,90.95
2019-02-19T08:02:27.170Z,90.53
2019-02-19T08:03:27.161Z,91.16
2019-02-19T08:04:27.139Z,91.36
2019-02-19T08:05:27.123Z,90.95
2019-02-19T08:06:27.126Z,91.05
2019-02-19T08:07:27.106Z,90.84
2019-02-19T08:08:27.093Z,90.95
2019-02-19T08:09:27.087Z,91.05
2019-02-19T08:10:27.141Z,91.05
2019-02-19T08:11:27.124Z,90.53
2019-02-19T08:12:27.068Z,90.74
2019-02-19T08:13:27.060Z,90.43
2019-02-19T08:14:28.585Z,90.84
2019-02-19T08:15:27.022Z,90.43
2019-02-19T08:16:27.028Z,90.22
2019-02-19T08:17:33.090Z,90.19
2019-02-19T08:18:27.993Z,89.50
2019-02-19T08:19:27.027Z,89.36
2019-02-19T08:20:26.969Z,88.84
2019-02-19T08:21:26.967Z,89.36
2019-02-19T08:22:26.976Z,89.15
2019-02-19T08:23:26.930Z,89.36
2019-02-19T08:24:26.923Z,89.56
2019-02-19T08:25:26.907Z,89.36
2019-02-19T08:26:26.899Z,89.36
2019-02-19T08:27:26.915Z,89.05
2019-02-19T08:28:26.896Z,89.05
2019-02-19T08:29:26.865Z,89.05
2019-02-19T08:30:26.851Z,89.36
2019-02-19T08:31:26.845Z,88.64
2019-02-19T08:32:26.830Z,89.25
2019-02-19T08:33:26.839Z,89.05
2019-02-19T08:34:26.844Z,89.15
2019-02-19T08:35:26.797Z,89.56
2019-02-19T08:36:26.807Z,89.56
2019-02-19T08:37:26.777Z,89.61
2019-02-19T08:38:26.766Z,89.61
2019-02-19T08:39:26.759Z,90.02
2019-02-19T08:40:27.100Z,89.29
2019-02-19T08:41:26.740Z,89.61
2019-02-19T08:42:26.737Z,89.61
2019-02-19T08:43:26.711Z,89.50
2019-02-19T08:44:26.699Z,89.50
2019-02-19T08:45:26.692Z,89.40
2019-02-19T08:46:26.711Z,89.09
2019-02-19T08:47:26.729Z,89.50
2019-02-19T08:48:26.656Z,89.09
2019-02-19T08:49:26.644Z,88.98
2019-02-19T08:50:26.638Z,89.09
2019-02-19T08:51:26.624Z,89.50
2019-02-19T08:52:26.679Z,89.29
2019-02-19T08:53:26.601Z,89.09
2019-02-19T08:54:26.591Z,89.56
2019-02-19T08:55:26.580Z,88.95
2019-02-19T08:56:26.573Z,89.46
2019-02-19T08:57:26.577Z,88.95
2019-02-19T08:58:26.569Z,89.15
2019-02-19T08:59:26.535Z,88.95
2019-02-19T09:00:26.526Z,89.25
2019-02-19T09:01:26.516Z,89.56
2019-02-19T09:02:26.521Z,88.74
2019-02-19T09:03:26.494Z,88.59
2019-02-19T09:04:26.512Z,88.49
2019-02-19T09:05:26.470Z,87.46
2019-02-19T09:06:27.667Z,87.46
2019-02-19T09:07:26.473Z,87.46
2019-02-19T09:08:26.437Z,86.94
2019-02-19T09:09:26.429Z,88.39
2019-02-19T09:10:26.429Z,87.56
2019-02-19T09:11:26.417Z,88.45
2019-02-19T09:12:26.416Z,86.90
2019-02-19T09:13:26.393Z,86.24
2019-02-19T09:14:26.376Z,86.87
2019-02-19T09:15:26.360Z,86.97
2019-02-19T09:16:26.381Z,87.07
2019-02-19T09:17:26.378Z,87.07
2019-02-19T09:18:26.328Z,87.11
2019-02-19T09:19:26.323Z,86.87
2019-02-19T09:20:26.307Z,86.15
2019-02-19T09:21:26.295Z,85.63
2019-02-19T09:22:26.300Z,86.04
2019-02-19T09:23:26.301Z,85.59
2019-02-19T09:24:26.269Z,85.11
2019-02-19T09:25:26.258Z,85.01
2019-02-19T09:26:26.242Z,84.97
2019-02-19T09:27:26.248Z,84.77
2019-02-19T09:28:26.222Z,85.79
2019-02-19T09:29:26.230Z,84.87
2019-02-19T09:30:26.204Z,84.35
2019-02-19T09:31:26.203Z,85.22
2019-02-19T09:32:26.193Z,84.77
2019-02-19T09:33:26.168Z,83.94
2019-02-19T09:34:26.156Z,83.63
2019-02-19T09:35:26.182Z,82.60
2019-02-19T09:36:26.135Z,83.53
2019-02-19T09:37:26.148Z,83.94
2019-02-19T09:38:26.122Z,84.05
2019-02-19T09:39:26.105Z,82.40
2019-02-19T09:40:26.092Z,82.19
2019-02-19T09:41:26.094Z,81.77
2019-02-19T09:42:26.107Z,81.88
2019-02-19T09:43:26.062Z,81.67
2019-02-19T09:44:26.046Z,80.95
2019-02-19T09:45:26.036Z,81.26
2019-02-19T09:46:26.025Z,81.88
2019-02-19T09:47:26.067Z,81.05
2019-02-19T09:48:26.032Z,80.95
2019-02-19T09:49:25.995Z,81.12
2019-02-19T09:50:25.995Z,82.19
2019-02-19T09:51:25.974Z,80.51
2019-02-19T09:52:25.963Z,81.23
2019-02-19T09:53:25.973Z,79.79
2019-02-19T09:54:25.958Z,80.09
2019-02-19T09:55:25.949Z,79.33
2019-02-19T09:56:25.936Z,79.37
2019-02-19T09:57:25.916Z,79.27
2019-02-19T09:58:25.931Z,78.82
2019-02-19T09:59:25.902Z,79.03
2019-02-19T10:00:25.886Z,78.86
2019-02-19T10:01:25.882Z,78.24
2019-02-19T10:02:25.853Z,78.24
2019-02-19T10:03:25.856Z,78.24
2019-02-19T10:04:26.048Z,78.79
2019-02-19T10:05:25.854Z,79.20
2019-02-19T10:06:25.810Z,79.10
2019-02-19T10:07:25.800Z,79.41
2019-02-19T10:08:25.807Z,79.34
2019-02-19T10:09:25.785Z,78.21
2019-02-19T10:10:25.786Z,78.28
2019-02-19T10:11:25.768Z,79.14
2019-02-19T10:12:25.768Z,77.25
2019-02-19T10:13:25.841Z,77.66
2019-02-19T10:14:25.735Z,77.66
2019-02-19T10:15:25.727Z,77.45
2019-02-19T10:16:25.731Z,77.76
2019-02-19T10:17:25.700Z,77.04
2019-02-19T10:18:25.736Z,77.42
2019-02-19T10:19:26.154Z,76.28
2019-02-19T10:20:25.669Z,77.42
2019-02-19T10:21:25.650Z,77.11
2019-02-19T10:22:25.652Z,75.25
2019-02-19T10:23:25.660Z,75.77
2019-02-19T10:24:25.618Z,76.25
2019-02-19T10:25:25.607Z,75.12
2019-02-19T10:26:25.593Z,75.32
2019-02-19T10:27:25.590Z,75.35
2019-02-19T10:28:25.588Z,75.42
2019-02-19T10:29:25.589Z,75.73
2019-02-19T10:30:25.550Z,74.91
2019-02-19T10:31:25.540Z,74.40
2019-02-19T10:32:25.531Z,74.29
2019-02-19T10:33:25.531Z,75.52
2019-02-19T10:34:25.545Z,74.19
2019-02-19T10:35:25.526Z,74.87
2019-02-19T10:36:25.501Z,74.36
2019-02-19T10:37:25.489Z,73.95
2019-02-19T10:38:25.576Z,74.12
2019-02-19T10:39:25.464Z,73.91
2019-02-19T10:40:25.463Z,72.58
2019-02-19T10:41:25.488Z,72.78
2019-02-19T10:42:25.454Z,73.91
2019-02-19T10:43:25.419Z,73.54
2019-02-19T10:44:25.539Z,73.16
2019-02-19T10:45:25.400Z,73.68
2019-02-19T10:46:25.395Z,74.40
2019-02-19T10:47:25.390Z,73.47
2019-02-19T10:48:25.374Z,73.57
2019-02-19T10:49:25.362Z,73.19
2019-02-19T10:50:25.338Z,73.71
2019-02-19T10:51:25.348Z,74.29
2019-02-19T10:52:25.341Z,74.53
2019-02-19T10:53:25.330Z,72.99
2019-02-19T10:54:25.298Z,73.57
2019-02-19T10:55:25.304Z,74.70
2019-02-19T10:56:25.287Z,74.40
2019-02-19T10:57:25.285Z,74.19
2019-02-19T10:58:25.247Z,73.78
2019-02-19T10:59:25.262Z,74.29
2019-02-19T11:00:25.228Z,73.57
2019-02-19T11:01:25.217Z,74.29
2019-02-19T11:02:25.225Z,73.47
2019-02-19T11:03:25.218Z,74.29
2019-02-19T11:04:25.196Z,75.56
2019-02-19T11:05:25.198Z,74.12
2019-02-19T11:06:25.166Z,74.02
2019-02-19T11:07:25.161Z,72.88
2019-02-19T11:08:25.201Z,74.08
2019-02-19T11:09:25.142Z,73.26
2019-02-19T11:10:25.153Z,73.16
2019-02-19T11:11:25.141Z,72.75
2019-02-19T11:12:25.100Z,72.44
2019-02-19T11:13:25.106Z,72.85
2019-02-19T11:14:25.081Z,72.51
2019-02-19T11:15:25.074Z,72.92
2019-02-19T11:16:25.079Z,72.81
2019-02-19T11:17:25.054Z,73.13
2019-02-19T11:18:28.425Z,73.02
2019-02-19T11:19:25.046Z,72.92
2019-02-19T11:20:25.013Z,72.81
2019-02-19T11:21:25.007Z,72.58
2019-02-19T11:22:26.007Z,70.94
2019-02-19T11:23:24.998Z,72.58
2019-02-19T11:24:24.968Z,71.86
2019-02-19T11:25:24.978Z,71.41
2019-02-19T11:26:24.952Z,72.13
2019-02-19T11:27:24.942Z,72.44
2019-02-19T11:28:24.945Z,72.24
2019-02-19T11:29:25.043Z,72.27
2019-02-19T11:30:24.908Z,72.44
2019-02-19T11:31:24.934Z,72.75
2019-02-19T11:32:26.355Z,71.83
2019-02-19T11:33:24.873Z,71.93
2019-02-19T11:34:24.877Z,71.62
2019-02-19T11:35:24.848Z,71.51
2019-02-19T11:36:24.837Z,71.93
2019-02-19T11:37:24.843Z,71.38
2019-02-19T11:38:24.849Z,71.69
2019-02-19T11:39:24.835Z,71.28
2019-02-19T11:40:24.842Z,71.59
2019-02-19T11:41:24.799Z,71.69
2019-02-19T11:42:24.772Z,71.45
2019-02-19T11:43:24.804Z,71.14
2019-02-19T11:44:24.807Z,69.81
2019-02-19T11:45:24.742Z,69.19
2019-02-19T11:46:24.751Z,70.42
2019-02-19T11:47:26.662Z,69.60
2019-02-19T11:48:24.714Z,69.78
2019-02-19T11:49:24.828Z,69.78
2019-02-19T11:50:24.703Z,69.13
2019-02-19T11:51:24.678Z,69.61
2019-02-19T11:52:24.731Z,69.61
2019-02-19T11:53:24.673Z,68.59
2019-02-19T11:54:24.664Z,68.89
2019-02-19T11:55:24.639Z,68.68
2019-02-19T11:56:24.633Z,67.63
2019-02-19T11:57:24.627Z,67.73
2019-02-19T11:58:24.606Z,68.14
2019-02-19T11:59:24.611Z,68.86
2019-02-19T12:00:24.674Z,67.35
2019-02-19T12:01:24.568Z,67.97
2019-02-19T12:02:32.577Z,67.35
2019-02-19T12:03:25.545Z,68.68
2019-02-19T12:04:24.556Z,68.68
2019-02-19T12:05:24.534Z,67.73
2019-02-19T12:06:24.529Z,68.59
2019-02-19T12:07:24.507Z,68.21
2019-02-19T12:08:24.494Z,68.89
2019-02-19T12:09:24.498Z,67.90
2019-02-19T12:10:24.472Z,68.48
2019-02-19T12:11:24.534Z,68.17
2019-02-19T12:12:24.454Z,68.00
2019-02-19T12:13:24.443Z,68.10
2019-02-19T12:14:24.451Z,67.49
2019-02-19T12:15:24.413Z,67.59
2019-02-19T12:16:24.407Z,68.82
2019-02-19T12:17:24.433Z,68.92
2019-02-19T12:18:24.383Z,67.90
2019-02-19T12:19:24.385Z,67.28
2019-02-19T12:20:24.390Z,68.62
2019-02-19T12:21:24.362Z,67.49
2019-02-19T12:22:24.353Z,67.90
2019-02-19T12:23:24.331Z,67.79
2019-02-19T12:24:24.450Z,67.66
2019-02-19T12:25:24.354Z,68.04
2019-02-19T12:26:24.338Z,67.63
2019-02-19T12:27:24.291Z,67.46
2019-02-19T12:28:24.300Z,67.66
2019-02-19T12:29:24.260Z,67.66
2019-02-19T12:30:24.258Z,67.56
2019-02-19T12:31:24.310Z,68.79
2019-02-19T12:32:24.252Z,68.10
2019-02-19T12:33:24.223Z,68.72
2019-02-19T12:34:24.236Z,67.79
2019-02-19T12:35:24.202Z,68.62
2019-02-19T12:36:24.208Z,68.85
2019-02-19T12:37:24.176Z,69.26
2019-02-19T12:38:24.185Z,68.75
2019-02-19T12:39:24.159Z,68.65
2019-02-19T12:40:24.187Z,69.29
2019-02-19T12:41:24.136Z,69.26
2019-02-19T12:42:24.129Z,69.40
2019-02-19T12:43:24.118Z,69.40
2019-02-19T12:44:24.125Z,68.99
2019-02-19T12:45:24.109Z,68.68
2019-02-19T12:46:24.101Z,68.75
2019-02-19T12:47:24.087Z,68.57
2019-02-19T12:48:24.072Z,69.70
2019-02-19T12:49:24.054Z,68.78
2019-02-19T12:50:24.160Z,69.29
2019-02-19T12:51:26.458Z,69.78
2019-02-19T12:52:24.010Z,69.47